Time;durP1;ratioP1;P1;durP2;ratioP2;P2;SDS_P1;SDS_P2;PMS_P1;PMS_P2;Temp;Humidity;BMP_temperature;BMP_pressure;BME280_temperature;BME280_humidity;BME280_pressure;Samples;Min_cycle;Max_cycle;Signal;HPM_P1;HPM_P2
2022/10/09 00:00:02;;;;;;;;;;;;;;;;;;348753;28;1076;-64
2022/10/09 00:00:12;;;;;;;;;;;;;;;;;;348813;28;794;-64
2022/10/09 00:00:23;;;;;;;;;;;;;;;;;;348806;28;929;-64
2022/10/09 00:00:33;;;;;;;;;;;;;;;;;;348777;28;995;-64
2022/10/09 00:00:44;;;;;;;;;;;;;;;;;;348887;28;849;-64
2022/10/09 00:01:05;;;;;;;;;;;;;;;;;;348762;28;933;-64
2022/10/09 00:01:22;;;;;;;;;;;;;;;;;;348780;28;1024;-64
2022/10/09 00:01:33;;;;;;;;;;;;;;;;;;348811;28;983;-64
2022/10/09 00:01:43;;;;;;;;;;;;;;;;;;348685;28;1966;-64
2022/10/09 00:01:53;;;;;;;;;;;;;;;;;;348386;28;2111;-64
2022/10/09 00:02:03;;;;;;;;;;;;;;;;;;347816;28;1748;-64
2022/10/09 00:02:13;;;;;;;;;;;;;;;;;;348126;28;1624;-64
2022/10/09 00:02:24;;;;;;;;;;;;;;;;;;347167;28;2065;-64
2022/10/09 00:02:34;;;;;;;;;;;;;;;;;;349292;28;1401;-64
2022/10/09 00:02:44;;;;;;;;;;;;;;;;;;348822;28;1221;-64
2022/10/09 00:02:54;;;;;;;;;;;;;;;;;;348838;28;831;-64
2022/10/09 00:03:05;;;;;;;;;;;;;;;;;;348759;28;897;-64
2022/10/09 00:03:16;;;;;;;;;;;;;;;;;;348758;28;993;-64
2022/10/09 00:03:26;;;;;;;;;;;;;;;;;;348787;28;995;-64
2022/10/09 00:03:37;;;;;;;;;;;;;;;;;;348780;28;985;-64
2022/10/09 00:03:48;;;;;;;;;;;;;;;;;;348722;28;1674;-64
2022/10/09 00:03:58;;;;;;;;;;;;;;;;;;348816;28;2199;-64
2022/10/09 00:04:09;;;;;;;;;;;;;;;;;;350196;28;826;-64
2022/10/09 00:04:19;;;;;;;;;;;;;;;;;;350196;28;980;-64
2022/10/09 00:04:29;;;;;;;;;;;;;;;;;;350122;28;901;-64
2022/10/09 00:04:39;;;;;;;;;;;;;;;;;;350138;28;758;-64
2022/10/09 00:04:49;;;;;;;;;;;;;;;;;;350158;28;853;-64
2022/10/09 00:04:59;;;;;;;;;;;;;;;;;;348807;28;1372;-64
2022/10/09 00:05:10;;;;;;;;;;;;;;;;;;347688;28;1585;-64
2022/10/09 00:05:22;;;;;;;;;;;;;;;;;;348780;28;1206;-64
2022/10/09 00:05:32;;;;;;;;;;;;;;;;;;348734;28;1053;-64
2022/10/09 00:05:43;;;;;;;;;;;;;;;;;;348749;28;905;-64
2022/10/09 00:05:53;;;;;;;;;;;;;;;;;;348850;28;1020;-64
2022/10/09 00:06:04;;;;;;;;;;;;;;;;;;348831;28;1036;-64
2022/10/09 00:06:16;;;;;;;;;;;;;;;;;;348652;28;1212;-64
2022/10/09 00:06:28;;;;;;;;;;;;;;;;;;348794;28;969;-64
2022/10/09 00:06:39;;;;;;;;;;;;;;;;;;348810;28;845;-64
2022/10/09 00:06:49;;;;;;;;;;;;;;;;;;348794;28;904;-64
2022/10/09 00:06:59;;;;;;;;;;;;;;;;;;348792;28;984;-64
2022/10/09 00:07:09;;;;;;;;;;;;;;;;;;348751;28;1194;-64
2022/10/09 00:07:19;;;;;;;;;;;;;;;;;;348777;28;921;-64
2022/10/09 00:07:30;;;;;;;;;;;;;;;;;;348352;28;1358;-64
2022/10/09 00:07:40;;;;;;;;;;;;;;;;;;348763;28;1495;-64
2022/10/09 00:07:50;;;;;;;;;;;;;;;;;;348801;28;948;-64
2022/10/09 00:08:00;;;;;;;;;;;;;;;;;;348688;28;1212;-64
2022/10/09 00:08:10;;;;;;;;;;;;;;;;;;348756;28;842;-64
2022/10/09 00:08:21;;;;;;;;;;;;;;;;;;348809;28;1053;-64
2022/10/09 00:08:32;;;;;;;;;;;;;;;;;;348680;28;1013;-64
2022/10/09 00:08:43;;;;;;;;;;;;;;;;;;348798;28;1015;-64
2022/10/09 00:08:53;;;;;;;;;;;;;;;;;;348787;28;987;-64
2022/10/09 00:09:03;;;;;;;;;;;;;;;;;;348763;28;1179;-64
2022/10/09 00:09:14;;;;;;;;;;;;;;;;;;347995;28;1392;-63
2022/10/09 00:09:24;;;;;;;;;;;;;;;;;;348484;28;1753;-64
2022/10/09 00:09:34;;;;;;;;;;;;;;;;;;348725;28;945;-64
2022/10/09 00:09:45;;;;;;;;;;;;;;;;;;348820;28;948;-64
2022/10/09 00:09:55;;;;;;;;;;;;;;;;;;348811;28;957;-64
2022/10/09 00:10:05;;;;;;;;;;;;;;;;;;348718;28;794;-64
2022/10/09 00:10:15;;;;;;;;;;;;;;;;;;348723;28;945;-64
2022/10/09 00:10:25;;;;;;;;;;;;;;;;;;348799;28;854;-64
2022/10/09 00:10:40;;;;;;;;;;;;;;;;;;348710;28;1071;-64
2022/10/09 00:10:50;;;;;;;;;;;;;;;;;;348806;28;786;-64
2022/10/09 00:11:07;;;;;;;;;;;;;;;;;;348731;28;1003;-64
2022/10/09 00:11:27;;;;;;;;;;;;;;;;;;348800;28;917;-64
2022/10/09 00:11:37;;;;;;;;;;;;;;;;;;348775;28;1021;-64
2022/10/09 00:11:48;;;;;;;;;;;;;;;;;;348810;28;822;-64
2022/10/09 00:11:58;;;;;;;;;;;;;;;;;;348781;28;798;-64
2022/10/09 00:12:08;;;;;;;;;;;;;;;;;;348815;28;925;-63
2022/10/09 00:12:18;;;;;;;;;;;;;;;;;;348761;28;976;-64
2022/10/09 00:12:28;;;;;;;;;;;;;;;;;;348746;28;1032;-64
2022/10/09 00:12:39;;;;;;;;;;;;;;;;;;348751;28;905;-64
2022/10/09 00:12:49;;;;;;;;;;;;;;;;;;348743;28;794;-64
2022/10/09 00:12:59;;;;;;;;;;;;;;;;;;348797;28;905;-64
2022/10/09 00:13:10;;;;;;;;;;;;;;;;;;348755;28;810;-64
2022/10/09 00:13:20;;;;;;;;;;;;;;;;;;348761;28;928;-64
2022/10/09 00:13:30;;;;;;;;;;;;;;;;;;348826;28;860;-64
2022/10/09 00:13:40;;;;;;;;;;;;;;;;;;348777;28;920;-64
2022/10/09 00:13:51;;;;;;;;;;;;;;;;;;348747;28;830;-64
2022/10/09 00:14:02;;;;;;;;;;;;;;;;;;348851;28;1048;-64
2022/10/09 00:14:12;;;;;;;;;;;;;;;;;;348707;28;987;-64
2022/10/09 00:14:22;;;;;;;;;;;;;;;;;;348738;28;1079;-64
2022/10/09 00:14:32;;;;;;;;;;;;;;;;;;348735;28;925;-64
2022/10/09 00:14:42;;;;;;;;;;;;;;;;;;348773;28;921;-64
2022/10/09 00:14:53;;;;;;;;;;;;;;;;;;348821;28;824;-64
2022/10/09 00:15:03;;;;;;;;;;;;;;;;;;348771;28;985;-64
2022/10/09 00:15:13;;;;;;;;;;;;;;;;;;348769;28;1474;-64
2022/10/09 00:15:23;;;;;;;;;;;;;;;;;;348807;28;857;-64
2022/10/09 00:15:38;;;;;;;;;;;;;;;;;;348776;28;1083;-64
2022/10/09 00:15:48;;;;;;;;;;;;;;;;;;348765;28;940;-64
2022/10/09 00:16:01;;;;;;;;;;;;;;;;;;348722;28;909;-64
2022/10/09 00:16:12;;;;;;;;;;;;;;;;;;348789;28;1183;-64
2022/10/09 00:16:23;;;;;;;;;;;;;;;;;;347611;28;1473;-64
2022/10/09 00:16:33;;;;;;;;;;;;;;;;;;348413;28;1662;-64
2022/10/09 00:16:43;;;;;;;;;;;;;;;;;;348723;28;976;-64
2022/10/09 00:16:53;;;;;;;;;;;;;;;;;;348800;28;793;-64
2022/10/09 00:17:03;;;;;;;;;;;;;;;;;;348738;28;961;-64
2022/10/09 00:17:14;;;;;;;;;;;;;;;;;;348858;28;782;-64
2022/10/09 00:17:24;;;;;;;;;;;;;;;;;;348788;28;838;-64
2022/10/09 00:17:34;;;;;;;;;;;;;;;;;;348773;28;904;-64
2022/10/09 00:17:44;;;;;;;;;;;;;;;;;;348700;28;917;-64
2022/10/09 00:17:54;;;;;;;;;;;;;;;;;;348628;28;1008;-64
2022/10/09 00:18:05;;;;;;;;;;;;;;;;;;348761;28;1001;-64
2022/10/09 00:18:17;;;;;;;;;;;;;;;;;;348741;28;1051;-64
2022/10/09 00:18:27;;;;;;;;;;;;;;;;;;348023;28;1419;-64
2022/10/09 00:18:37;;;;;;;;;;;;;;;;;;348740;28;971;-64
2022/10/09 00:18:48;;;;;;;;;;;;;;;;;;348582;28;1013;-64
2022/10/09 00:18:58;;;;;;;;;;;;;;;;;;348794;28;969;-64
2022/10/09 00:19:08;;;;;;;;;;;;;;;;;;348765;28;850;-64
2022/10/09 00:19:18;;;;;;;;;;;;;;;;;;348839;28;1019;-64
2022/10/09 00:19:29;;;;;;;;;;;;;;;;;;348390;28;1435;-64
2022/10/09 00:19:39;;;;;;;;;;;;;;;;;;347449;28;853;-64
2022/10/09 00:19:49;;;;;;;;;;;;;;;;;;347329;28;953;-64
2022/10/09 00:19:59;;;;;;;;;;;;;;;;;;347372;28;791;-64
2022/10/09 00:20:10;;;;;;;;;;;;;;;;;;347389;28;936;-64
2022/10/09 00:20:20;;;;;;;;;;;;;;;;;;347430;28;838;-64
2022/10/09 00:20:33;;;;;;;;;;;;;;;;;;347371;28;810;-64
2022/10/09 00:20:45;;;;;;;;;;;;;;;;;;347321;28;1008;-64
2022/10/09 00:20:55;;;;;;;;;;;;;;;;;;347369;28;1020;-64
2022/10/09 00:21:13;;;;;;;;;;;;;;;;;;347404;28;980;-64
2022/10/09 00:21:28;;;;;;;;;;;;;;;;;;347418;28;1004;-64
2022/10/09 00:21:38;;;;;;;;;;;;;;;;;;347357;28;1906;-64
2022/10/09 00:21:48;;;;;;;;;;;;;;;;;;347380;28;854;-64
2022/10/09 00:21:59;;;;;;;;;;;;;;;;;;347339;28;960;-64
2022/10/09 00:22:09;;;;;;;;;;;;;;;;;;347432;28;809;-64
2022/10/09 00:22:19;;;;;;;;;;;;;;;;;;347387;28;992;-64
2022/10/09 00:22:29;;;;;;;;;;;;;;;;;;347458;28;1016;-64
2022/10/09 00:22:39;;;;;;;;;;;;;;;;;;347376;28;846;-64
2022/10/09 00:22:50;;;;;;;;;;;;;;;;;;347297;28;1231;-64
2022/10/09 00:23:00;;;;;;;;;;;;;;;;;;347369;28;984;-64
2022/10/09 00:23:13;;;;;;;;;;;;;;;;;;347426;28;770;-64
2022/10/09 00:23:23;;;;;;;;;;;;;;;;;;347408;28;1001;-64
2022/10/09 00:23:33;;;;;;;;;;;;;;;;;;347337;28;972;-64
2022/10/09 00:23:44;;;;;;;;;;;;;;;;;;347374;28;756;-64
2022/10/09 00:23:56;;;;;;;;;;;;;;;;;;347414;28;964;-64
2022/10/09 00:24:06;;;;;;;;;;;;;;;;;;347407;28;992;-64
2022/10/09 00:24:16;;;;;;;;;;;;;;;;;;347400;28;999;-64
2022/10/09 00:24:26;;;;;;;;;;;;;;;;;;347380;28;811;-64
2022/10/09 00:24:37;;;;;;;;;;;;;;;;;;347435;28;976;-64
2022/10/09 00:24:47;;;;;;;;;;;;;;;;;;347376;28;1017;-64
2022/10/09 00:24:57;;;;;;;;;;;;;;;;;;347308;28;814;-64
2022/10/09 00:25:08;;;;;;;;;;;;;;;;;;347396;28;929;-64
2022/10/09 00:25:18;;;;;;;;;;;;;;;;;;347365;28;941;-64
2022/10/09 00:25:28;;;;;;;;;;;;;;;;;;347359;28;867;-64
2022/10/09 00:25:39;;;;;;;;;;;;;;;;;;347431;28;905;-64
2022/10/09 00:25:53;;;;;;;;;;;;;;;;;;347376;28;1067;-64
2022/10/09 00:26:03;;;;;;;;;;;;;;;;;;347411;28;838;-64
2022/10/09 00:26:13;;;;;;;;;;;;;;;;;;347295;28;969;-64
2022/10/09 00:26:24;;;;;;;;;;;;;;;;;;347388;28;980;-64
2022/10/09 00:26:35;;;;;;;;;;;;;;;;;;347423;28;966;-64
2022/10/09 00:26:46;;;;;;;;;;;;;;;;;;347390;28;1000;-64
2022/10/09 00:26:56;;;;;;;;;;;;;;;;;;347342;28;980;-64
2022/10/09 00:27:06;;;;;;;;;;;;;;;;;;347339;28;946;-64
2022/10/09 00:27:16;;;;;;;;;;;;;;;;;;347452;28;815;-64
2022/10/09 00:27:26;;;;;;;;;;;;;;;;;;347369;28;968;-64
2022/10/09 00:27:37;;;;;;;;;;;;;;;;;;347406;28;932;-64
2022/10/09 00:27:47;;;;;;;;;;;;;;;;;;347398;28;917;-64
2022/10/09 00:27:57;;;;;;;;;;;;;;;;;;347364;28;791;-64
2022/10/09 00:28:07;;;;;;;;;;;;;;;;;;347370;28;1226;-64
2022/10/09 00:28:18;;;;;;;;;;;;;;;;;;347406;28;873;-64
2022/10/09 00:28:30;;;;;;;;;;;;;;;;;;347379;28;988;-64
2022/10/09 00:28:40;;;;;;;;;;;;;;;;;;347415;28;926;-64
2022/10/09 00:28:50;;;;;;;;;;;;;;;;;;347371;28;793;-64
2022/10/09 00:29:01;;;;;;;;;;;;;;;;;;347341;28;972;-64
2022/10/09 00:29:11;;;;;;;;;;;;;;;;;;347363;28;980;-64
2022/10/09 00:29:21;;;;;;;;;;;;;;;;;;347362;28;1099;-64
2022/10/09 00:29:31;;;;;;;;;;;;;;;;;;347407;28;900;-64
2022/10/09 00:29:41;;;;;;;;;;;;;;;;;;347335;28;959;-64
2022/10/09 00:29:52;;;;;;;;;;;;;;;;;;347361;28;759;-64
2022/10/09 00:30:03;;;;;;;;;;;;;;;;;;347389;28;1031;-64
2022/10/09 00:30:13;;;;;;;;;;;;;;;;;;347398;28;979;-64
2022/10/09 00:30:23;;;;;;;;;;;;;;;;;;347426;28;861;-64
2022/10/09 00:30:33;;;;;;;;;;;;;;;;;;347317;28;988;-64
2022/10/09 00:30:43;;;;;;;;;;;;;;;;;;347392;28;917;-64
2022/10/09 00:30:54;;;;;;;;;;;;;;;;;;347355;28;874;-64
2022/10/09 00:31:07;;;;;;;;;;;;;;;;;;347368;28;853;-64
2022/10/09 00:31:17;;;;;;;;;;;;;;;;;;347304;28;775;-64
2022/10/09 00:31:28;;;;;;;;;;;;;;;;;;347406;28;964;-64
2022/10/09 00:31:38;;;;;;;;;;;;;;;;;;347357;28;1036;-64
2022/10/09 00:31:49;;;;;;;;;;;;;;;;;;347406;28;920;-64
2022/10/09 00:31:59;;;;;;;;;;;;;;;;;;347436;28;817;-64
2022/10/09 00:32:09;;;;;;;;;;;;;;;;;;347316;28;1585;-64
2022/10/09 00:32:19;;;;;;;;;;;;;;;;;;349279;28;1663;-64
2022/10/09 00:32:29;;;;;;;;;;;;;;;;;;347237;28;1345;-64
2022/10/09 00:32:40;;;;;;;;;;;;;;;;;;348757;28;841;-64
2022/10/09 00:32:50;;;;;;;;;;;;;;;;;;349220;28;1327;-64
2022/10/09 00:33:00;;;;;;;;;;;;;;;;;;350114;28;995;-64
2022/10/09 00:33:10;;;;;;;;;;;;;;;;;;350137;28;813;-64
2022/10/09 00:33:21;;;;;;;;;;;;;;;;;;350149;28;971;-64
2022/10/09 00:33:31;;;;;;;;;;;;;;;;;;350125;28;928;-64
2022/10/09 00:33:42;;;;;;;;;;;;;;;;;;350084;28;940;-64
2022/10/09 00:33:52;;;;;;;;;;;;;;;;;;350152;28;949;-64
2022/10/09 00:34:02;;;;;;;;;;;;;;;;;;350119;28;924;-64
2022/10/09 00:34:12;;;;;;;;;;;;;;;;;;350141;28;972;-64
2022/10/09 00:34:23;;;;;;;;;;;;;;;;;;350098;28;952;-64
2022/10/09 00:34:33;;;;;;;;;;;;;;;;;;350185;28;861;-64
2022/10/09 00:34:43;;;;;;;;;;;;;;;;;;350201;28;924;-64
2022/10/09 00:34:53;;;;;;;;;;;;;;;;;;350141;28;889;-64
2022/10/09 00:35:04;;;;;;;;;;;;;;;;;;350086;28;944;-64
2022/10/09 00:35:14;;;;;;;;;;;;;;;;;;350139;28;841;-64
2022/10/09 00:35:24;;;;;;;;;;;;;;;;;;350163;28;860;-64
2022/10/09 00:35:36;;;;;;;;;;;;;;;;;;350113;28;909;-64
2022/10/09 00:35:47;;;;;;;;;;;;;;;;;;350072;28;952;-64
2022/10/09 00:35:57;;;;;;;;;;;;;;;;;;350153;28;983;-64
2022/10/09 00:36:09;;;;;;;;;;;;;;;;;;350112;28;940;-64
2022/10/09 00:36:21;;;;;;;;;;;;;;;;;;350135;28;987;-64
2022/10/09 00:36:31;;;;;;;;;;;;;;;;;;350076;28;936;-64
2022/10/09 00:36:41;;;;;;;;;;;;;;;;;;350122;28;920;-64
2022/10/09 00:36:51;;;;;;;;;;;;;;;;;;350090;28;1015;-64
2022/10/09 00:37:02;;;;;;;;;;;;;;;;;;350168;28;881;-64
2022/10/09 00:37:12;;;;;;;;;;;;;;;;;;350065;28;904;-64
2022/10/09 00:37:22;;;;;;;;;;;;;;;;;;350064;28;1000;-64
2022/10/09 00:37:32;;;;;;;;;;;;;;;;;;350149;28;849;-64
2022/10/09 00:37:43;;;;;;;;;;;;;;;;;;350164;28;979;-64
2022/10/09 00:37:53;;;;;;;;;;;;;;;;;;350167;28;1798;-64
2022/10/09 00:38:03;;;;;;;;;;;;;;;;;;350092;28;841;-64
2022/10/09 00:38:13;;;;;;;;;;;;;;;;;;350086;28;979;-64
2022/10/09 00:38:23;;;;;;;;;;;;;;;;;;350092;28;980;-64
2022/10/09 00:38:34;;;;;;;;;;;;;;;;;;350126;28;941;-64
2022/10/09 00:38:44;;;;;;;;;;;;;;;;;;350115;28;932;-64
2022/10/09 00:38:55;;;;;;;;;;;;;;;;;;350077;28;975;-64
2022/10/09 00:39:05;;;;;;;;;;;;;;;;;;350142;28;920;-64
2022/10/09 00:39:15;;;;;;;;;;;;;;;;;;350144;28;869;-64
2022/10/09 00:39:25;;;;;;;;;;;;;;;;;;350093;28;928;-64
2022/10/09 00:39:35;;;;;;;;;;;;;;;;;;350099;28;805;-64
2022/10/09 00:39:45;;;;;;;;;;;;;;;;;;350135;28;900;-64
2022/10/09 00:39:56;;;;;;;;;;;;;;;;;;350130;28;908;-64
2022/10/09 00:40:06;;;;;;;;;;;;;;;;;;350128;28;917;-64
2022/10/09 00:40:16;;;;;;;;;;;;;;;;;;350025;28;1147;-64
2022/10/09 00:40:26;;;;;;;;;;;;;;;;;;350130;28;873;-64
2022/10/09 00:40:37;;;;;;;;;;;;;;;;;;350144;28;893;-64
2022/10/09 00:40:47;;;;;;;;;;;;;;;;;;350124;28;964;-64
2022/10/09 00:40:57;;;;;;;;;;;;;;;;;;350092;28;1419;-64
2022/10/09 00:41:10;;;;;;;;;;;;;;;;;;350123;28;975;-64
2022/10/09 00:41:27;;;;;;;;;;;;;;;;;;350107;28;924;-64
2022/10/09 00:41:37;;;;;;;;;;;;;;;;;;349990;28;1914;-64
2022/10/09 00:41:48;;;;;;;;;;;;;;;;;;350122;28;924;-64
2022/10/09 00:41:58;;;;;;;;;;;;;;;;;;349839;28;1450;-64
2022/10/09 00:42:10;;;;;;;;;;;;;;;;;;347186;28;1472;-64
2022/10/09 00:42:20;;;;;;;;;;;;;;;;;;348674;28;1003;-64
2022/10/09 00:42:30;;;;;;;;;;;;;;;;;;348726;28;908;-64
2022/10/09 00:42:41;;;;;;;;;;;;;;;;;;348763;28;987;-64
2022/10/09 00:42:55;;;;;;;;;;;;;;;;;;348774;28;987;-64
2022/10/09 00:43:12;;;;;;;;;;;;;;;;;;348750;28;884;-64
2022/10/09 00:43:37;;;;;;;;;;;;;;;;;;348672;28;952;-64
2022/10/09 00:43:49;;;;;;;;;;;;;;;;;;348659;28;991;-64
2022/10/09 00:44:00;;;;;;;;;;;;;;;;;;348773;28;1024;-64
2022/10/09 00:44:29;;;;;;;;;;;;;;;;;;348736;28;924;-64
2022/10/09 00:44:46;;;;;;;;;;;;;;;;;;348687;28;921;-64
2022/10/09 00:44:58;;;;;;;;;;;;;;;;;;348737;28;968;-64
2022/10/09 00:45:15;;;;;;;;;;;;;;;;;;348712;28;937;-64
2022/10/09 00:45:26;;;;;;;;;;;;;;;;;;348770;28;1051;-64
2022/10/09 00:45:36;;;;;;;;;;;;;;;;;;348760;28;989;-64
2022/10/09 00:45:48;;;;;;;;;;;;;;;;;;348703;28;868;-64
2022/10/09 00:45:58;;;;;;;;;;;;;;;;;;348825;28;908;-64
2022/10/09 00:46:21;;;;;;;;;;;;;;;;;;348708;28;996;-64
2022/10/09 00:46:38;;;;;;;;;;;;;;;;;;348750;28;933;-64
2022/10/09 00:46:50;;;;;;;;;;;;;;;;;;348727;28;790;-64
2022/10/09 00:47:00;;;;;;;;;;;;;;;;;;348733;28;952;-64
2022/10/09 00:47:16;;;;;;;;;;;;;;;;;;348701;28;884;-64
2022/10/09 00:47:28;;;;;;;;;;;;;;;;;;348731;28;1012;-64
2022/10/09 00:47:41;;;;;;;;;;;;;;;;;;348715;28;960;-64
2022/10/09 00:47:56;;;;;;;;;;;;;;;;;;348653;28;965;-64
2022/10/09 00:48:09;;;;;;;;;;;;;;;;;;348713;28;857;-64
2022/10/09 00:48:19;;;;;;;;;;;;;;;;;;348682;28;999;-64
2022/10/09 00:48:30;;;;;;;;;;;;;;;;;;348763;28;996;-64
2022/10/09 00:48:40;;;;;;;;;;;;;;;;;;348764;28;881;-64
2022/10/09 00:48:59;;;;;;;;;;;;;;;;;;348717;28;963;-64
2022/10/09 00:49:19;;;;;;;;;;;;;;;;;;348717;28;983;-64
2022/10/09 00:49:31;;;;;;;;;;;;;;;;;;348636;28;917;-64
2022/10/09 00:49:41;;;;;;;;;;;;;;;;;;348727;28;972;-64
2022/10/09 00:49:53;;;;;;;;;;;;;;;;;;348763;28;822;-64
2022/10/09 00:50:06;;;;;;;;;;;;;;;;;;348700;28;1008;-64
2022/10/09 00:50:25;;;;;;;;;;;;;;;;;;348686;28;1709;-64
2022/10/09 00:50:54;;;;;;;;;;;;;;;;;;348728;28;940;-64
2022/10/09 00:51:04;;;;;;;;;;;;;;;;;;348740;28;1039;-64
2022/10/09 00:51:14;;;;;;;;;;;;;;;;;;348726;28;1004;-64
2022/10/09 00:51:25;;;;;;;;;;;;;;;;;;348718;28;976;-64
2022/10/09 00:51:35;;;;;;;;;;;;;;;;;;348731;28;870;-64
2022/10/09 00:51:47;;;;;;;;;;;;;;;;;;348746;28;929;-64
2022/10/09 00:51:59;;;;;;;;;;;;;;;;;;348688;28;924;-64
2022/10/09 00:52:09;;;;;;;;;;;;;;;;;;348704;28;841;-64
2022/10/09 00:52:22;;;;;;;;;;;;;;;;;;348738;28;896;-64
2022/10/09 00:52:33;;;;;;;;;;;;;;;;;;348705;28;961;-64
2022/10/09 00:52:43;;;;;;;;;;;;;;;;;;348691;28;1011;-64
2022/10/09 00:52:56;;;;;;;;;;;;;;;;;;348765;28;853;-64
2022/10/09 00:53:07;;;;;;;;;;;;;;;;;;348635;28;1139;-64
2022/10/09 00:53:19;;;;;;;;;;;;;;;;;;348565;28;1003;-64
2022/10/09 00:53:29;;;;;;;;;;;;;;;;;;348741;28;774;-64
2022/10/09 00:53:39;;;;;;;;;;;;;;;;;;348726;28;936;-64
2022/10/09 00:53:50;;;;;;;;;;;;;;;;;;348695;28;1205;-64
2022/10/09 00:54:02;;;;;;;;;;;;;;;;;;348658;28;1031;-64
2022/10/09 00:54:13;;;;;;;;;;;;;;;;;;348755;28;1011;-64
2022/10/09 00:54:25;;;;;;;;;;;;;;;;;;348664;28;932;-64
2022/10/09 00:54:37;;;;;;;;;;;;;;;;;;348723;28;842;-64
2022/10/09 00:54:48;;;;;;;;;;;;;;;;;;348754;28;991;-64
2022/10/09 00:55:00;;;;;;;;;;;;;;;;;;348743;28;897;-64
2022/10/09 00:55:11;;;;;;;;;;;;;;;;;;348716;28;972;-64
2022/10/09 00:55:22;;;;;;;;;;;;;;;;;;348606;28;1441;-63
2022/10/09 00:55:33;;;;;;;;;;;;;;;;;;348672;28;991;-64
2022/10/09 00:55:44;;;;;;;;;;;;;;;;;;348746;28;1000;-64
2022/10/09 00:55:54;;;;;;;;;;;;;;;;;;348771;28;817;-64
2022/10/09 00:56:05;;;;;;;;;;;;;;;;;;348675;28;845;-64
2022/10/09 00:56:15;;;;;;;;;;;;;;;;;;348706;28;920;-64
2022/10/09 00:56:26;;;;;;;;;;;;;;;;;;348724;28;949;-64
2022/10/09 00:56:36;;;;;;;;;;;;;;;;;;348643;28;980;-64
2022/10/09 00:56:47;;;;;;;;;;;;;;;;;;347928;28;1391;-64
2022/10/09 00:56:58;;;;;;;;;;;;;;;;;;347450;28;933;-64
2022/10/09 00:57:08;;;;;;;;;;;;;;;;;;347314;28;848;-64
2022/10/09 00:57:19;;;;;;;;;;;;;;;;;;347384;28;975;-64
2022/10/09 00:57:30;;;;;;;;;;;;;;;;;;347361;28;948;-64
2022/10/09 00:57:40;;;;;;;;;;;;;;;;;;347341;28;892;-64
2022/10/09 00:57:52;;;;;;;;;;;;;;;;;;347311;28;996;-64
2022/10/09 00:58:03;;;;;;;;;;;;;;;;;;347309;28;2150;-64
2022/10/09 00:58:13;;;;;;;;;;;;;;;;;;347365;28;905;-64
2022/10/09 00:58:24;;;;;;;;;;;;;;;;;;347303;28;795;-64
2022/10/09 00:58:34;;;;;;;;;;;;;;;;;;347350;28;968;-64
2022/10/09 00:58:50;;;;;;;;;;;;;;;;;;347386;28;924;-64
2022/10/09 00:59:01;;;;;;;;;;;;;;;;;;347344;28;1003;-64
2022/10/09 00:59:12;;;;;;;;;;;;;;;;;;347089;28;1024;-64
2022/10/09 00:59:22;;;;;;;;;;;;;;;;;;347092;28;1055;-63
2022/10/09 00:59:33;;;;;;;;;;;;;;;;;;347135;28;774;-64
2022/10/09 00:59:43;;;;;;;;;;;;;;;;;;347127;28;956;-64
2022/10/09 00:59:53;;;;;;;;;;;;;;;;;;347118;28;965;-64
2022/10/09 01:00:06;;;;;;;;;;;;;;;;;;347271;28;909;-64
2022/10/09 01:00:17;;;;;;;;;;;;;;;;;;347294;28;952;-64
2022/10/09 01:00:27;;;;;;;;;;;;;;;;;;347376;28;981;-64
2022/10/09 01:00:37;;;;;;;;;;;;;;;;;;347262;28;1016;-64
2022/10/09 01:00:48;;;;;;;;;;;;;;;;;;347361;28;892;-64
2022/10/09 01:00:58;;;;;;;;;;;;;;;;;;347357;28;821;-64
2022/10/09 01:01:08;;;;;;;;;;;;;;;;;;347395;28;846;-64
2022/10/09 01:01:18;;;;;;;;;;;;;;;;;;347297;28;1130;-64
2022/10/09 01:01:29;;;;;;;;;;;;;;;;;;347404;28;841;-64
2022/10/09 01:01:40;;;;;;;;;;;;;;;;;;346827;28;2183;-64
2022/10/09 01:01:50;;;;;;;;;;;;;;;;;;348874;28;1543;-64
2022/10/09 01:02:00;;;;;;;;;;;;;;;;;;350062;28;999;-64
2022/10/09 01:02:10;;;;;;;;;;;;;;;;;;348991;28;1340;-64
2022/10/09 01:02:20;;;;;;;;;;;;;;;;;;348653;28;860;-64
2022/10/09 01:02:31;;;;;;;;;;;;;;;;;;348749;28;1011;-64
2022/10/09 01:02:41;;;;;;;;;;;;;;;;;;348642;28;1186;-64
2022/10/09 01:02:52;;;;;;;;;;;;;;;;;;348726;28;960;-64
2022/10/09 01:03:02;;;;;;;;;;;;;;;;;;348777;28;826;-64
2022/10/09 01:03:12;;;;;;;;;;;;;;;;;;348759;28;853;-64
2022/10/09 01:03:22;;;;;;;;;;;;;;;;;;348676;28;964;-64
2022/10/09 01:03:32;;;;;;;;;;;;;;;;;;348726;28;936;-64
2022/10/09 01:03:43;;;;;;;;;;;;;;;;;;348707;28;814;-64
2022/10/09 01:03:53;;;;;;;;;;;;;;;;;;348729;28;980;-64
2022/10/09 01:04:03;;;;;;;;;;;;;;;;;;348660;28;929;-64
2022/10/09 01:04:13;;;;;;;;;;;;;;;;;;348703;28;857;-64
2022/10/09 01:04:24;;;;;;;;;;;;;;;;;;348711;28;846;-64
2022/10/09 01:04:34;;;;;;;;;;;;;;;;;;348660;28;1001;-64
2022/10/09 01:04:44;;;;;;;;;;;;;;;;;;348424;28;1087;-64
2022/10/09 01:04:54;;;;;;;;;;;;;;;;;;348759;28;908;-64
2022/10/09 01:05:07;;;;;;;;;;;;;;;;;;348686;28;929;-64
2022/10/09 01:05:17;;;;;;;;;;;;;;;;;;348678;28;991;-64
2022/10/09 01:05:41;;;;;;;;;;;;;;;;;;348706;28;929;-64
2022/10/09 01:06:08;;;;;;;;;;;;;;;;;;348749;28;996;-64
2022/10/09 01:06:27;;;;;;;;;;;;;;;;;;348721;28;932;-64
2022/10/09 01:06:48;;;;;;;;;;;;;;;;;;348678;28;818;-64
2022/10/09 01:07:34;;;;;;;;;;;;;;;;;;348688;28;968;-64
2022/10/09 01:08:10;;;;;;;;;;;;;;;;;;344353;28;980;-64
2022/10/09 01:08:37;;;;;;;;;;;;;;;;;;341734;29;1079;-64
2022/10/09 01:08:47;;;;;;;;;;;;;;;;;;341761;29;1001;-64
2022/10/09 01:09:04;;;;;;;;;;;;;;;;;;341722;29;928;-64
2022/10/09 01:09:18;;;;;;;;;;;;;;;;;;343894;28;1012;-64
2022/10/09 01:09:36;;;;;;;;;;;;;;;;;;344456;28;929;-64
2022/10/09 01:10:00;;;;;;;;;;;;;;;;;;344430;28;913;-64
2022/10/09 01:10:26;;;;;;;;;;;;;;;;;;343729;28;1425;-64
2022/10/09 01:10:51;;;;;;;;;;;;;;;;;;346737;28;1013;-64
2022/10/09 01:11:24;;;;;;;;;;;;;;;;;;348484;28;1159;-64
2022/10/09 01:11:52;;;;;;;;;;;;;;;;;;348695;28;902;-64
2022/10/09 01:12:10;;;;;;;;;;;;;;;;;;348702;28;995;-64
2022/10/09 01:12:35;;;;;;;;;;;;;;;;;;348667;28;1045;-64
2022/10/09 01:12:45;;;;;;;;;;;;;;;;;;348604;28;933;-64
2022/10/09 01:13:12;;;;;;;;;;;;;;;;;;348674;28;949;-64
2022/10/09 01:13:31;;;;;;;;;;;;;;;;;;348026;28;1598;-64
2022/10/09 01:13:45;;;;;;;;;;;;;;;;;;347334;28;965;-64
2022/10/09 01:14:14;;;;;;;;;;;;;;;;;;347281;28;1000;-64
2022/10/09 01:14:27;;;;;;;;;;;;;;;;;;347245;28;1016;-64
2022/10/09 01:14:42;;;;;;;;;;;;;;;;;;347354;28;948;-64
2022/10/09 01:15:01;;;;;;;;;;;;;;;;;;347294;28;961;-64
2022/10/09 01:15:21;;;;;;;;;;;;;;;;;;347384;28;813;-64
2022/10/09 01:15:43;;;;;;;;;;;;;;;;;;347324;28;996;-64
2022/10/09 01:15:54;;;;;;;;;;;;;;;;;;347288;28;968;-63
2022/10/09 01:16:08;;;;;;;;;;;;;;;;;;347338;28;941;-64
2022/10/09 01:16:29;;;;;;;;;;;;;;;;;;347371;28;789;-65
2022/10/09 01:16:43;;;;;;;;;;;;;;;;;;347320;28;937;-65
2022/10/09 01:17:01;;;;;;;;;;;;;;;;;;347304;28;870;-64
2022/10/09 01:17:21;;;;;;;;;;;;;;;;;;347322;28;932;-64
2022/10/09 01:17:40;;;;;;;;;;;;;;;;;;347334;28;1011;-65
2022/10/09 01:17:57;;;;;;;;;;;;;;;;;;347310;28;892;-65
2022/10/09 01:18:10;;;;;;;;;;;;;;;;;;347358;28;842;-64
2022/10/09 01:18:27;;;;;;;;;;;;;;;;;;347336;28;830;-64
2022/10/09 01:18:56;;;;;;;;;;;;;;;;;;347199;28;1178;-64
2022/10/09 01:19:21;;;;;;;;;;;;;;;;;;347266;28;925;-64
2022/10/09 01:19:34;;;;;;;;;;;;;;;;;;347293;28;933;-65
2022/10/09 01:19:55;;;;;;;;;;;;;;;;;;347342;28;802;-64
2022/10/09 01:20:08;;;;;;;;;;;;;;;;;;347275;28;933;-65
2022/10/09 01:20:27;;;;;;;;;;;;;;;;;;347310;28;932;-64
2022/10/09 01:20:41;;;;;;;;;;;;;;;;;;347341;28;921;-65
2022/10/09 01:20:55;;;;;;;;;;;;;;;;;;347321;28;1102;-65
2022/10/09 01:21:16;;;;;;;;;;;;;;;;;;347182;28;1043;-65
2022/10/09 01:21:32;;;;;;;;;;;;;;;;;;347311;28;960;-65
2022/10/09 01:21:51;;;;;;;;;;;;;;;;;;347192;28;1894;-65
2022/10/09 01:22:10;;;;;;;;;;;;;;;;;;347372;28;829;-64
2022/10/09 01:22:38;;;;;;;;;;;;;;;;;;347329;28;949;-64
2022/10/09 01:22:49;;;;;;;;;;;;;;;;;;347309;28;937;-64
2022/10/09 01:23:05;;;;;;;;;;;;;;;;;;347300;28;909;-65
2022/10/09 01:23:25;;;;;;;;;;;;;;;;;;348392;28;980;-64
2022/10/09 01:23:41;;;;;;;;;;;;;;;;;;348668;28;822;-65
2022/10/09 01:23:54;;;;;;;;;;;;;;;;;;348734;28;913;-65
2022/10/09 01:24:04;;;;;;;;;;;;;;;;;;348657;28;920;-65
2022/10/09 01:24:27;;;;;;;;;;;;;;;;;;348680;28;876;-65
2022/10/09 01:24:39;;;;;;;;;;;;;;;;;;348664;28;796;-64
2022/10/09 01:24:53;;;;;;;;;;;;;;;;;;348685;28;869;-64
2022/10/09 01:25:05;;;;;;;;;;;;;;;;;;348684;28;787;-65
2022/10/09 01:25:21;;;;;;;;;;;;;;;;;;348628;28;953;-65
2022/10/09 01:25:35;;;;;;;;;;;;;;;;;;348653;28;917;-65
2022/10/09 01:25:45;;;;;;;;;;;;;;;;;;348688;28;869;-65
2022/10/09 01:26:07;;;;;;;;;;;;;;;;;;348710;28;846;-65
2022/10/09 01:26:27;;;;;;;;;;;;;;;;;;348666;28;1147;-65
2022/10/09 01:26:59;;;;;;;;;;;;;;;;;;348688;28;1074;-65
2022/10/09 01:27:09;;;;;;;;;;;;;;;;;;348606;28;1008;-64
2022/10/09 01:27:22;;;;;;;;;;;;;;;;;;348658;28;929;-65
2022/10/09 01:27:34;;;;;;;;;;;;;;;;;;348642;28;975;-64
2022/10/09 01:27:45;;;;;;;;;;;;;;;;;;348698;28;774;-65
2022/10/09 01:27:55;;;;;;;;;;;;;;;;;;348688;28;909;-65
2022/10/09 01:28:06;;;;;;;;;;;;;;;;;;348668;28;1016;-65
2022/10/09 01:28:17;;;;;;;;;;;;;;;;;;348667;28;976;-65
2022/10/09 01:28:28;;;;;;;;;;;;;;;;;;348713;28;936;-65
2022/10/09 01:28:41;;;;;;;;;;;;;;;;;;348693;28;933;-65
2022/10/09 01:28:53;;;;;;;;;;;;;;;;;;348635;28;952;-65